Barrington, IL (60011)

1:54 AM CDT on September 02, 2014 (GMT -0500)
Foxmoor | Change Station
CLOSE
Current Station
Personal Weather Station
Location: Fox River Grove, IL
Elevation: 797 ft
Nearby Weather Stations

Elev 797 ft 42.19 °N, 88.22 °W | Updated 6 seconds ago

Mostly Cloudy
Mostly Cloudy
68.2 °F
Feels Like 68.2 °F
N
0.0
Wind Variable Wind from West
Gusts 0.0 mph

Today
High -- | Low -- °F
--% Chance of Precip.
Yesterday
High -- | Low -- °F
Precip. -- in
6:19 AM 7:24 PM
Waxing Crescent, 48% visible
Pressure 29.86 in
Visibility 10.0 miles
Clouds Clear
Dew Point 63 °F
Humidity 84%
Rainfall 0.00 in
Snow Depth Not available.
UV 0 out of 12
Pollen 8.80 out of 12
Ozone Good
PM2.5 Good
Flu Activity Not available.
METAR KPWK 020552Z AUTO 26003KT 10SM CLR 22/19 A2987 RMK AO2 SLP109 60006 T02220194 10267 20217 402890217 50010

More Conditions Fewer Conditions

Pressure 29.86 in
Visibility 10.0 miles
Clouds Clear
Dew Point 63 °F
Humidity 84%
Rainfall 0.00 in
Snow Depth Not available.
UV 0 out of 12
Pollen 8.80 out of 12
Ozone Good
PM2.5 Good
Flu Activity Not available.
METAR KPWK 020552Z AUTO 26003KT 10SM CLR 22/19 A2987 RMK AO2 SLP109 60006 T02220194 10267 20217 402890217 50010

More Conditions Fewer Conditions

10-Day Weather Forecast

Almanac

Astronomy

Sep. 02, 2014 Rise Set
Actual Time 6:19 AM CDT 7:24 PM CDT
Civil Twilight 5:50 AM CDT 7:53 PM CDT
Nautical Twilight 5:16 AM CDT 8:27 PM CDT
Astronomical Twilight 4:40 AM CDT 9:03 PM CDT
Moon 2:11 PM CDT No Moon Set
Length of Visible Light 14h 03m
Length of Day
13h 05m
Tomorrow will be 2m 43s shorter.
Waxing Crescent, 48% of the Moon is Illuminated
Today
Waxing Crescent
Sep 2
First Quarter
Sep 8
Full
Sep 15
Last Quarter
Sep 24
New

Today's Extremes

State Highs State Lows

Community

WunderPhotos

Upload Photos

1,749,589 photos uploaded!

WunderBlogs® & News

Nearby

Air Quality

  Air Quality AQ Index Pollutant
Yesterday Good
PM2.5
Yesterday Good
OZONE
Current Good
PM2.5
Current Good
OZONE
Tuesday Good
OZONE
Tuesday Good
PM2.5

Snow Depth

Station Depth Elevation
No new snow has been reported.

Earthquake Activity

City Distance Mag. Time & Date
No recent earthquake activity has been reported nearby.
Minimum magnitude displayed is 2.5.

Coastal Water Temperatures

Place Temperature
No Stations Reporting

Nearby Weather Stations